Decoded Metar for EPKT (KATOWICE in POLAND) (IATA:KTW) | Meteo·Mobile Aviation Weather
aviador You're here:

EPKT Decoded Metar

KATOWICE in POLAND
Report Time2018-11-12 18:30:00
UTC Time2018-11-12 18:37:13
Flight Rules mvfr MVFR
Wind170° at 03 kt
W.Decomp.*RWY 09: 0.7 kt HW 2.9 kt RCW
W.Rank170° ranks 35
Current wind is below 170° avg. (5.1)
Visibility7000 m
Phenomena:N/A
Clouds:Few 042 Hf
Expected CloudBase > 1,600 ft AGL from Temp-Dew spread
CeilingNone
Temp10°C (ISA -3)
Dew Point06°C (76% RH)
AAT8.0°C
QNH1023 hPa
Density Alt348 ft
Elevation932 ft
Report Wrong Elevation
Raw Report
METAR EPKT 121830Z 17003KT 140V200 7000 FEW042 10/06 Q1023=

Extra information for EPKT:More info

Metar Taf Metar & Taf Last 4 Metars F.Rules Stats Wind Profile Meteogram Temp Stats Airport Information Weather charts Add Link Nearby VenuesMetar ALERT Operation Metar Decoded Social comments